Time;durP1;ratioP1;P1;durP2;ratioP2;P2;SDS_P1;SDS_P2;PMS_P1;PMS_P2;Temp;Humidity;BMP_temperature;BMP_pressure;BME280_temperature;BME280_humidity;BME280_pressure;Samples;Min_cycle;Max_cycle;Signal;HPM_P1;HPM_P2
2022/11/30 00:00:11;;;;;;;78.90;33.08;;;7.10;99.90;;;;;;5054310;28;20123;-67
2022/11/30 00:02:36;;;;;;;61.63;29.70;;;7.10;99.90;;;;;;5053976;28;20044;-67
2022/11/30 00:05:02;;;;;;;70.97;32.63;;;7.30;99.90;;;;;;5053319;28;20147;-68
2022/11/30 00:07:28;;;;;;;70.38;31.33;;;7.10;99.90;;;;;;5054378;28;20465;-68
2022/11/30 00:09:53;;;;;;;67.80;32.65;;;7.20;99.90;;;;;;5054276;28;20048;-68
2022/11/30 00:12:19;;;;;;;66.30;31.77;;;7.30;99.90;;;;;;5053796;28;20552;-67
2022/11/30 00:14:44;;;;;;;67.85;32.33;;;7.30;99.90;;;;;;5053879;28;20048;-67
2022/11/30 00:17:10;;;;;;;72.63;32.50;;;7.10;99.90;;;;;;5054060;28;20044;-68
2022/11/30 00:19:35;;;;;;;73.85;34.40;;;7.30;99.90;;;;;;5053862;28;20041;-68
2022/11/30 00:22:01;;;;;;;71.95;33.45;;;7.20;99.90;;;;;;5054034;28;20033;-67
2022/11/30 00:24:26;;;;;;;75.93;34.53;;;7.10;99.90;;;;;;5053676;28;20048;-67
2022/11/30 00:26:52;;;;;;;67.45;33.38;;;7.30;99.90;;;;;;5053832;28;20527;-68
2022/11/30 00:29:17;;;;;;;67.07;33.60;;;7.20;99.90;;;;;;5052580;28;20041;-67
2022/11/30 00:31:43;;;;;;;66.68;30.95;;;7.00;99.90;;;;;;5053752;28;20040;-67
2022/11/30 00:34:09;;;;;;;58.70;28.95;;;7.30;99.90;;;;;;5053129;28;20060;-68
2022/11/30 00:36:34;;;;;;;60.80;30.60;;;7.10;99.90;;;;;;5053851;28;20116;-68
2022/11/30 00:39:00;;;;;;;69.20;31.45;;;7.30;99.90;;;;;;5053631;28;20036;-68
2022/11/30 00:41:25;;;;;;;66.95;30.75;;;7.40;99.90;;;;;;5053228;28;20037;-68
2022/11/30 00:43:51;;;;;;;65.72;33.78;;;7.10;99.90;;;;;;5053066;28;20037;-68
2022/11/30 00:46:16;;;;;;;67.80;36.08;;;7.30;99.90;;;;;;5053454;28;20037;-69
2022/11/30 00:48:42;;;;;;;68.78;35.55;;;7.10;99.90;;;;;;5053177;28;20037;-67
2022/11/30 00:51:10;;;;;;;65.80;36.60;;;7.30;99.90;;;;;;5052205;28;20036;-68
2022/11/30 00:53:36;;;;;;;67.57;36.78;;;7.10;99.90;;;;;;5052909;28;20470;-68
2022/11/30 00:56:02;;;;;;;64.15;36.00;;;7.10;99.90;;;;;;5053265;28;20123;-68
2022/11/30 00:58:28;;;;;;;69.57;37.63;;;7.20;99.90;;;;;;5053285;28;20087;-67
2022/11/30 01:00:53;;;;;;;61.35;32.92;;;7.10;99.90;;;;;;5053219;28;20037;-69
2022/11/30 01:03:19;;;;;;;53.20;29.73;;;7.10;99.90;;;;;;5051443;28;20582;-68
2022/11/30 01:05:45;;;;;;;60.13;28.85;;;7.00;99.90;;;;;;5052927;28;20045;-69
2022/11/30 01:08:12;;;;;;;53.58;30.17;;;7.30;99.90;;;;;;5051785;28;20044;-68
2022/11/30 01:10:40;;;;;;;53.20;30.73;;;7.00;99.90;;;;;;5053075;28;20045;-68
2022/11/30 01:13:06;;;;;;;57.13;29.65;;;7.10;99.90;;;;;;5052728;28;20049;-69
2022/11/30 01:15:36;;;;;;;54.28;27.80;;;7.00;99.90;;;;;;5052715;28;20064;-68
2022/11/30 01:18:02;;;;;;;57.40;29.38;;;7.00;99.90;;;;;;5051829;28;20037;-68
2022/11/30 01:20:28;;;;;;;54.58;31.77;;;7.20;99.90;;;;;;5051601;28;20060;-69
2022/11/30 01:22:54;;;;;;;57.65;28.90;;;7.20;99.90;;;;;;5052494;28;20123;-68
2022/11/30 01:25:20;;;;;;;54.05;30.10;;;6.90;99.90;;;;;;5052855;28;20526;-68
2022/11/30 01:27:50;;;;;;;51.92;27.20;;;7.20;99.90;;;;;;5052707;28;20082;-68
2022/11/30 01:30:16;;;;;;;48.53;27.73;;;7.00;99.90;;;;;;5052485;28;20041;-68
2022/11/30 01:32:42;;;;;;;48.65;27.40;;;7.20;99.90;;;;;;5050948;28;20056;-68
2022/11/30 01:35:08;;;;;;;49.75;26.13;;;7.00;99.90;;;;;;5052496;28;20033;-68
2022/11/30 01:37:34;;;;;;;51.78;27.75;;;7.20;99.90;;;;;;5052591;28;20033;-68
2022/11/30 01:39:59;;;;;;;44.72;25.13;;;7.00;99.90;;;;;;5050983;28;20399;-68
2022/11/30 01:42:25;;;;;;;46.40;26.27;;;7.20;99.90;;;;;;5050657;28;20102;-68
2022/11/30 01:44:53;;;;;;;49.45;26.00;;;7.10;99.90;;;;;;5050939;28;20049;-67
2022/11/30 01:47:32;;;;;;;45.55;25.77;;;7.00;99.90;;;;;;5052305;28;20119;-68
2022/11/30 01:50:05;;;;;;;47.30;25.60;;;7.10;99.90;;;;;;5052180;28;20499;-68
2022/11/30 01:52:37;;;;;;;42.83;24.15;;;7.00;99.90;;;;;;5052013;28;20048;-69
2022/11/30 01:55:14;;;;;;;42.15;25.77;;;7.10;99.90;;;;;;5052024;28;20037;-68
2022/11/30 01:57:46;;;;;;;50.03;27.50;;;7.30;99.90;;;;;;5047281;28;20045;-68
2022/11/30 02:00:13;;;;;;;41.92;25.55;;;7.30;99.90;;;;;;5049337;28;20037;-67
2022/11/30 02:02:57;;;;;;;42.75;24.63;;;7.20;99.90;;;;;;5045937;28;20120;-68
2022/11/30 02:05:24;;;;;;;44.05;26.70;;;7.40;99.90;;;;;;5050781;28;20091;-68
2022/11/30 02:07:50;;;;;;;40.00;24.05;;;7.30;99.90;;;;;;5051701;28;20036;-68
2022/11/30 02:10:21;;;;;;;43.95;24.42;;;7.30;99.90;;;;;;5051974;28;20568;-68
2022/11/30 02:13:24;;;;;;;47.35;26.58;;;7.20;99.90;;;;;;5051677;28;20037;-69
2022/11/30 02:16:16;;;;;;;43.63;24.65;;;7.20;99.90;;;;;;5051838;28;20080;-68
2022/11/30 02:18:47;;;;;;;44.85;26.05;;;7.40;99.90;;;;;;5051943;28;20040;-69
2022/11/30 02:21:46;;;;;;;44.38;26.42;;;7.20;99.90;;;;;;5051802;28;20044;-68
2022/11/30 02:24:38;;;;;;;42.25;24.48;;;7.30;99.90;;;;;;5039961;28;20132;-67
2022/11/30 02:27:40;;;;;;;48.58;27.25;;;7.10;99.90;;;;;;5051935;28;20052;-68
2022/11/30 02:30:24;;;;;;;45.03;27.73;;;7.40;99.90;;;;;;5051645;28;20129;-68
2022/11/30 02:33:00;;;;;;;46.85;26.95;;;7.10;99.90;;;;;;5051243;28;20041;-68
2022/11/30 02:35:29;;;;;;;45.55;26.08;;;7.10;99.90;;;;;;5051587;28;20045;-67
2022/11/30 02:37:57;;;;;;;46.75;27.60;;;7.10;99.90;;;;;;5051583;28;20445;-68
2022/11/30 02:40:23;;;;;;;49.70;28.08;;;7.20;99.90;;;;;;5051498;28;20037;-67
2022/11/30 02:42:51;;;;;;;45.50;26.63;;;7.30;99.90;;;;;;5051090;28;20025;-68
2022/11/30 02:45:21;;;;;;;43.05;25.48;;;7.30;99.90;;;;;;5051279;28;20051;-69
2022/11/30 02:48:03;;;;;;;44.00;26.20;;;7.10;99.90;;;;;;5051572;28;20076;-67
2022/11/30 02:50:40;;;;;;;47.50;27.30;;;7.10;99.90;;;;;;5051291;28;20159;-68
2022/11/30 02:53:07;;;;;;;44.45;26.00;;;7.30;99.90;;;;;;5051054;28;20072;-68
2022/11/30 02:55:33;;;;;;;45.08;27.15;;;7.40;99.90;;;;;;5051114;28;20056;-68
2022/11/30 02:57:58;;;;;;;51.47;27.95;;;7.10;99.90;;;;;;5051084;28;20432;-67
2022/11/30 03:00:24;;;;;;;48.65;27.38;;;7.30;99.90;;;;;;5051414;28;20055;-67
2022/11/30 03:02:50;;;;;;;51.72;26.50;;;7.30;99.90;;;;;;5050750;28;20068;-67
2022/11/30 03:05:15;;;;;;;52.53;26.98;;;7.00;99.90;;;;;;5103314;22;20050;-74
2022/11/30 03:07:41;;;;;;;51.92;26.88;;;7.30;99.90;;;;;;5110514;28;20088;-73
2022/11/30 03:10:07;;;;;;;60.22;29.73;;;7.20;99.90;;;;;;5111848;28;20034;-73
2022/11/30 03:12:32;;;;;;;52.63;26.73;;;7.00;99.90;;;;;;5110436;28;20044;-74
2022/11/30 03:14:58;;;;;;;55.20;28.02;;;7.00;99.90;;;;;;5110495;28;20046;-73
2022/11/30 03:17:24;;;;;;;54.80;28.02;;;7.20;99.90;;;;;;5111319;28;20039;-73
2022/11/30 03:19:49;;;;;;;55.85;27.90;;;7.20;99.90;;;;;;5110475;28;20111;-73
2022/11/30 03:22:15;;;;;;;55.17;28.30;;;7.10;99.90;;;;;;5111560;28;20047;-72
2022/11/30 03:24:40;;;;;;;57.00;29.25;;;7.20;99.90;;;;;;5111463;28;20051;-72
2022/11/30 03:27:06;;;;;;;55.08;27.15;;;6.90;99.90;;;;;;5111518;28;20035;-72
2022/11/30 03:29:31;;;;;;;54.38;28.02;;;6.90;99.90;;;;;;5111860;28;20043;-72
2022/11/30 03:31:57;;;;;;;62.13;29.75;;;6.80;99.90;;;;;;5110347;28;20394;-73
2022/11/30 03:34:25;;;;;;;57.95;26.73;;;6.90;99.90;;;;;;5111203;28;20524;-72
2022/11/30 03:36:50;;;;;;;57.42;28.67;;;6.80;99.90;;;;;;5110390;28;20031;-72
2022/11/30 03:39:16;;;;;;;68.35;30.15;;;6.90;99.90;;;;;;5111559;28;20042;-72
2022/11/30 03:41:41;;;;;;;60.55;28.45;;;6.80;99.90;;;;;;5114568;28;20038;-72
2022/11/30 03:44:07;;;;;;;61.35;28.50;;;7.00;99.90;;;;;;5115144;28;20078;-72
2022/11/30 03:46:33;;;;;;;58.88;28.02;;;7.10;99.90;;;;;;5114006;28;20036;-72
2022/11/30 03:48:58;;;;;;;57.72;28.35;;;7.00;99.90;;;;;;5115324;28;20093;-72
2022/11/30 03:51:24;;;;;;;61.35;28.88;;;7.10;99.90;;;;;;5113835;28;20047;-72
2022/11/30 03:53:49;;;;;;;61.05;28.60;;;7.10;99.90;;;;;;5114754;28;20073;-72
2022/11/30 03:56:15;;;;;;;62.17;30.10;;;6.90;99.90;;;;;;5113674;28;20477;-72
2022/11/30 03:58:41;;;;;;;55.40;27.33;;;6.90;99.90;;;;;;5097075;28;20039;-72
2022/11/30 04:01:15;;;;;;;63.72;29.80;;;6.80;99.90;;;;;;5114955;28;20116;-72
2022/11/30 04:03:41;;;;;;;55.80;27.20;;;6.90;99.90;;;;;;5113350;28;20074;-72
2022/11/30 04:06:09;;;;;;;61.20;28.10;;;6.90;99.90;;;;;;5114641;28;20493;-72
2022/11/30 04:08:36;;;;;;;71.60;29.45;;;7.00;99.90;;;;;;5114755;28;20064;-72
2022/11/30 04:11:02;;;;;;;54.80;26.15;;;6.80;99.90;;;;;;5113753;28;20063;-72
2022/11/30 04:13:28;;;;;;;62.03;28.33;;;7.10;99.90;;;;;;5114634;28;20048;-72
2022/11/30 04:15:54;;;;;;;61.05;28.88;;;7.10;99.90;;;;;;5114621;28;20096;-72
2022/11/30 04:18:22;;;;;;;58.33;25.67;;;7.00;99.90;;;;;;5114728;28;20051;-72
2022/11/30 04:20:52;;;;;;;63.17;28.33;;;7.10;99.90;;;;;;5114541;28;20039;-72
2022/11/30 04:23:17;;;;;;;66.30;29.88;;;6.80;99.90;;;;;;5114213;27;20036;-73
2022/11/30 04:25:43;;;;;;;65.03;27.60;;;7.00;99.90;;;;;;5114614;28;20042;-72
2022/11/30 04:28:09;;;;;;;69.93;30.10;;;6.70;99.90;;;;;;5114606;28;20392;-72
2022/11/30 04:30:36;;;;;;;63.95;29.58;;;7.00;99.90;;;;;;5113346;28;20043;-74
2022/11/30 04:33:02;;;;;;;70.60;31.08;;;7.00;99.90;;;;;;5112736;28;20031;-72
2022/11/30 04:35:27;;;;;;;72.22;30.10;;;6.70;99.90;;;;;;5114066;27;20650;-74
2022/11/30 04:37:53;;;;;;;71.80;29.02;;;7.00;99.90;;;;;;5114176;28;20035;-73
2022/11/30 04:40:19;;;;;;;68.72;32.58;;;6.90;99.90;;;;;;5095943;28;20042;-74
2022/11/30 04:42:44;;;;;;;76.10;30.80;;;6.60;99.90;;;;;;5113944;28;20041;-73
2022/11/30 04:45:10;;;;;;;72.03;30.65;;;6.90;99.90;;;;;;5114149;28;20066;-73
2022/11/30 04:47:36;;;;;;;78.45;32.85;;;6.70;99.90;;;;;;5113008;28;20043;-74
2022/11/30 04:50:02;;;;;;;78.00;32.13;;;6.60;99.90;;;;;;5113918;28;20039;-73
2022/11/30 04:52:27;;;;;;;75.30;31.75;;;6.50;99.90;;;;;;5113482;28;20039;-73
2022/11/30 04:54:54;;;;;;;67.03;30.35;;;6.70;99.90;;;;;;5113913;28;20450;-74
2022/11/30 04:57:19;;;;;;;74.32;31.58;;;6.80;99.90;;;;;;5112849;28;20080;-73
2022/11/30 04:59:45;;;;;;;79.25;32.20;;;6.70;99.90;;;;;;5113954;28;20031;-73
2022/11/30 05:02:10;;;;;;;80.38;32.50;;;6.60;99.90;;;;;;5113786;28;20058;-73
2022/11/30 05:04:36;;;;;;;79.22;33.17;;;6.60;99.90;;;;;;5113188;28;20528;-73
2022/11/30 05:07:02;;;;;;;71.22;29.40;;;6.80;99.90;;;;;;5113621;28;20032;-73
2022/11/30 05:09:27;;;;;;;67.15;29.58;;;6.60;99.90;;;;;;5112439;28;20492;-74
2022/11/30 05:11:53;;;;;;;69.82;31.33;;;6.70;99.90;;;;;;5112284;28;20039;-73
2022/11/30 05:14:18;;;;;;;63.38;30.67;;;6.80;99.90;;;;;;5113253;28;20043;-73
2022/11/30 05:16:46;;;;;;;62.30;29.70;;;6.80;99.90;;;;;;5113637;28;20110;-73
2022/11/30 05:19:13;;;;;;;63.85;28.42;;;6.70;99.90;;;;;;5113370;28;20075;-73
2022/11/30 05:21:39;;;;;;;60.55;26.92;;;6.70;99.90;;;;;;5113323;28;20039;-73
2022/11/30 05:24:05;;;;;;;63.38;27.42;;;6.70;99.90;;;;;;5111639;28;20032;-73
2022/11/30 05:26:30;;;;;;;64.75;27.95;;;6.80;99.90;;;;;;5113454;28;20036;-73
2022/11/30 05:28:56;;;;;;;73.93;29.58;;;6.60;99.90;;;;;;5113317;28;20124;-73
2022/11/30 05:31:22;;;;;;;75.22;31.95;;;6.70;99.90;;;;;;5112191;28;20089;-73
2022/11/30 05:33:51;;;;;;;67.00;28.80;;;6.80;99.90;;;;;;5111444;28;20047;-73
2022/11/30 05:36:16;;;;;;;68.20;28.95;;;6.80;99.90;;;;;;5113016;28;20036;-73
2022/11/30 05:38:42;;;;;;;73.88;31.73;;;6.60;99.90;;;;;;5112015;28;20055;-73
2022/11/30 05:41:08;;;;;;;64.45;29.65;;;6.80;99.90;;;;;;5113137;28;20047;-73
2022/11/30 05:43:33;;;;;;;68.22;30.48;;;6.80;99.90;;;;;;5112774;28;20180;-73
2022/11/30 05:46:00;;;;;;;69.53;31.38;;;6.80;99.90;;;;;;5112922;28;20039;-73
2022/11/30 05:48:26;;;;;;;69.90;31.00;;;6.60;99.90;;;;;;5112852;28;20055;-73
2022/11/30 05:50:52;;;;;;;71.53;30.25;;;6.90;99.90;;;;;;5111736;28;20036;-73
2022/11/30 05:53:17;;;;;;;65.35;31.17;;;6.60;99.90;;;;;;5112498;28;20111;-73
2022/11/30 05:55:43;;;;;;;65.97;28.92;;;6.70;99.90;;;;;;5112761;28;20110;-74
2022/11/30 05:58:09;;;;;;;60.20;27.27;;;6.70;99.90;;;;;;5112829;28;20036;-73
2022/11/30 06:00:34;;;;;;;52.22;26.70;;;6.50;99.90;;;;;;5112776;28;20398;-73
2022/11/30 06:03:00;;;;;;;59.40;26.85;;;6.70;99.90;;;;;;5111801;28;20035;-73
2022/11/30 06:05:26;;;;;;;57.00;26.65;;;6.60;99.90;;;;;;5112318;28;20436;-73
2022/11/30 06:07:53;;;;;;;54.03;26.60;;;6.60;99.90;;;;;;5112722;28;20039;-73
2022/11/30 06:10:18;;;;;;;55.17;27.80;;;6.80;99.90;;;;;;5112889;28;20040;-74
2022/11/30 06:12:44;;;;;;;47.47;23.85;;;6.60;99.90;;;;;;5112678;28;20058;-74
2022/11/30 06:15:10;;;;;;;48.00;24.13;;;6.60;99.90;;;;;;5112514;28;20049;-73
2022/11/30 06:17:36;;;;;;;45.42;23.52;;;6.70;99.90;;;;;;5111109;28;20517;-73
2022/11/30 06:20:04;;;;;;;51.58;24.65;;;6.70;99.90;;;;;;5112289;28;20036;-74
2022/11/30 06:22:30;;;;;;;49.42;25.25;;;6.40;99.90;;;;;;5110754;28;20390;-74
2022/11/30 06:24:55;;;;;;;51.30;24.85;;;6.50;99.90;;;;;;5112419;28;20046;-73
2022/11/30 06:27:21;;;;;;;45.95;24.58;;;6.70;99.90;;;;;;5112205;28;20043;-73
2022/11/30 06:29:46;;;;;;;49.17;21.95;;;6.70;99.90;;;;;;5112283;28;20031;-73
2022/11/30 06:32:12;;;;;;;46.50;21.98;;;6.60;99.90;;;;;;5112135;28;20039;-73
2022/11/30 06:34:37;;;;;;;42.03;21.30;;;6.40;99.90;;;;;;5110361;28;20061;-73
2022/11/30 06:37:03;;;;;;;38.38;19.75;;;6.40;99.90;;;;;;5112089;28;20035;-73
2022/11/30 06:39:28;;;;;;;45.13;20.58;;;6.50;99.90;;;;;;5112083;28;20077;-73
2022/11/30 06:41:54;;;;;;;37.53;20.45;;;6.50;99.90;;;;;;5112228;28;20039;-73
2022/11/30 06:44:19;;;;;;;39.83;21.52;;;6.60;99.90;;;;;;5111800;28;20599;-74
2022/11/30 06:46:45;;;;;;;38.05;19.73;;;6.70;99.90;;;;;;5112246;28;20042;-73
2022/11/30 06:49:11;;;;;;;37.50;19.60;;;6.60;99.90;;;;;;5112062;28;20122;-73
2022/11/30 06:51:38;;;;;;;36.47;19.23;;;6.50;99.90;;;;;;5112413;28;20046;-73
2022/11/30 06:54:05;;;;;;;31.48;18.38;;;6.70;99.90;;;;;;5111769;28;20075;-73
2022/11/30 06:56:30;;;;;;;35.95;18.55;;;6.50;99.90;;;;;;5110873;28;20032;-73
2022/11/30 06:58:56;;;;;;;28.70;18.00;;;6.70;99.90;;;;;;5110519;28;20043;-73
2022/11/30 07:01:22;;;;;;;30.40;17.67;;;6.60;99.90;;;;;;5111833;28;20401;-74
2022/11/30 07:03:48;;;;;;;29.95;17.27;;;6.60;99.90;;;;;;5110224;28;20069;-73
2022/11/30 07:06:14;;;;;;;29.55;16.67;;;6.50;99.90;;;;;;5110350;28;20122;-73
2022/11/30 07:08:40;;;;;;;29.25;16.75;;;6.60;99.90;;;;;;5112016;28;20466;-73
2022/11/30 07:11:07;;;;;;;28.80;16.83;;;6.60;99.90;;;;;;5110738;28;20044;-72
2022/11/30 07:13:33;;;;;;;27.63;17.63;;;6.70;99.90;;;;;;5110404;28;20051;-73
2022/11/30 07:16:02;;;;;;;25.48;16.08;;;6.60;99.90;;;;;;5078625;28;20048;-73
2022/11/30 07:18:28;;;;;;;29.13;16.58;;;6.70;99.90;;;;;;5114443;28;20039;-73
2022/11/30 07:20:58;;;;;;;22.13;16.35;;;6.60;99.90;;;;;;5115794;28;20047;-73
2022/11/30 07:26:08;;;;;;;27.38;16.50;;;6.50;99.90;;;;;;5115414;28;20055;-72
2022/11/30 07:28:45;;;;;;;29.80;17.65;;;6.60;99.90;;;;;;5115482;28;20040;-72
2022/11/30 07:31:18;;;;;;;26.52;15.20;;;6.60;99.90;;;;;;5114433;28;20039;-72
2022/11/30 07:33:44;;;;;;;25.42;16.85;;;6.40;99.90;;;;;;5114177;28;20123;-73
2022/11/30 07:36:10;;;;;;;29.42;18.67;;;6.50;99.90;;;;;;5115532;28;20040;-73
2022/11/30 07:38:37;;;;;;;26.42;17.35;;;6.50;99.90;;;;;;5115631;28;20038;-73
2022/11/30 07:41:02;;;;;;;28.33;17.58;;;6.60;99.90;;;;;;5115447;28;20067;-72
2022/11/30 07:43:28;;;;;;;28.85;18.20;;;6.70;99.90;;;;;;5114917;28;20092;-72
2022/11/30 07:45:54;;;;;;;30.30;17.63;;;6.60;99.90;;;;;;5115382;28;20492;-72
2022/11/30 07:48:20;;;;;;;26.60;15.85;;;6.70;99.90;;;;;;5114032;28;20047;-72
2022/11/30 07:50:47;;;;;;;28.20;17.23;;;6.50;99.90;;;;;;5114976;28;20067;-72
2022/11/30 07:53:13;;;;;;;31.80;17.92;;;6.50;99.90;;;;;;5113782;28;20070;-72
2022/11/30 07:55:39;;;;;;;29.42;17.70;;;6.70;99.90;;;;;;5113535;28;20437;-73
2022/11/30 07:58:05;;;;;;;30.45;17.95;;;6.70;99.90;;;;;;5114033;28;20039;-73
2022/11/30 08:00:30;;;;;;;28.08;19.08;;;6.60;99.90;;;;;;5096742;28;20039;-73
2022/11/30 08:02:56;;;;;;;31.20;18.33;;;6.60;99.90;;;;;;5113295;28;20084;-73
2022/11/30 08:05:22;;;;;;;29.00;18.40;;;6.40;99.90;;;;;;5113495;28;20079;-73
2022/11/30 08:07:52;;;;;;;29.60;17.20;;;6.60;99.90;;;;;;5113522;28;20035;-73
2022/11/30 08:10:19;;;;;;;28.77;19.02;;;6.50;99.90;;;;;;5113699;28;20362;-73
2022/11/30 08:12:45;;;;;;;32.13;19.50;;;6.70;99.90;;;;;;5096560;28;20122;-73
2022/11/30 08:15:10;;;;;;;37.08;20.02;;;6.60;99.90;;;;;;5113339;28;20035;-72
2022/11/30 08:17:36;;;;;;;30.20;19.60;;;6.70;99.90;;;;;;5113279;28;20127;-71
2022/11/30 08:20:02;;;;;;;32.40;19.67;;;6.50;99.90;;;;;;5114613;28;20035;-71
2022/11/30 08:22:28;;;;;;;31.13;19.27;;;6.80;99.90;;;;;;5095879;28;20047;-72
2022/11/30 08:24:53;;;;;;;34.38;22.52;;;6.70;99.90;;;;;;5113039;28;20116;-72
2022/11/30 08:27:19;;;;;;;32.53;19.60;;;6.70;99.90;;;;;;5095710;28;20043;-72
2022/11/30 08:29:44;;;;;;;33.38;20.77;;;6.60;99.90;;;;;;5113142;28;20043;-72
2022/11/30 08:32:10;;;;;;;37.25;21.13;;;6.60;99.90;;;;;;5112975;28;20031;-72
2022/11/30 08:34:35;;;;;;;40.83;23.67;;;6.60;99.90;;;;;;5112912;28;20405;-71
2022/11/30 08:37:02;;;;;;;37.72;25.23;;;6.60;99.90;;;;;;5113223;28;20508;-72
2022/11/30 08:39:30;;;;;;;45.67;24.80;;;6.60;99.90;;;;;;5114108;27;20067;-71
2022/11/30 08:41:56;;;;;;;42.92;26.30;;;6.70;99.90;;;;;;5114271;28;20042;-71
2022/11/30 08:44:21;;;;;;;40.03;25.25;;;6.70;99.90;;;;;;5095299;28;20122;-73
2022/11/30 08:46:47;;;;;;;38.85;22.30;;;6.70;99.90;;;;;;5114277;28;20045;-71
2022/11/30 08:49:12;;;;;;;37.40;22.50;;;6.80;99.90;;;;;;5112806;28;20481;-72
2022/11/30 08:51:38;;;;;;;39.63;22.70;;;6.60;99.90;;;;;;5114200;28;20043;-72
2022/11/30 08:54:03;;;;;;;41.75;22.88;;;6.70;99.90;;;;;;5113802;28;20065;-72
2022/11/30 08:56:29;;;;;;;37.40;21.27;;;6.70;99.90;;;;;;5112891;28;20503;-72
2022/11/30 08:58:55;;;;;;;38.42;22.95;;;6.70;99.90;;;;;;5114051;28;20028;-71
2022/11/30 09:01:23;;;;;;;38.30;21.42;;;6.80;99.90;;;;;;5112654;28;20114;-71
2022/11/30 09:03:51;;;;;;;31.98;19.65;;;6.60;99.90;;;;;;5113539;28;20489;-72
2022/11/30 09:06:19;;;;;;;49.25;23.38;;;6.80;99.90;;;;;;5107687;22;20066;-69
2022/11/30 09:08:46;;;;;;;41.08;23.20;;;6.60;99.90;;;;;;5082646;28;20490;-67
2022/11/30 09:11:12;;;;;;;38.08;22.90;;;6.60;99.90;;;;;;5081334;28;20040;-67
2022/11/30 09:13:38;;;;;;;40.78;21.80;;;6.60;99.90;;;;;;5072809;28;20051;-69
2022/11/30 09:16:04;;;;;;;39.63;22.50;;;6.80;99.90;;;;;;5070498;28;20052;-67
2022/11/30 09:18:30;;;;;;;38.92;23.35;;;6.70;99.90;;;;;;5070916;28;20506;-67
2022/11/30 09:21:05;;;;;;;36.92;21.63;;;6.60;99.90;;;;;;5072705;28;20043;-67
2022/11/30 09:23:31;;;;;;;36.33;22.40;;;6.70;99.90;;;;;;5072709;28;20486;-67
2022/11/30 09:25:58;;;;;;;39.17;23.30;;;6.60;99.90;;;;;;5072629;28;20066;-67
2022/11/30 09:28:25;;;;;;;41.30;23.23;;;6.80;99.90;;;;;;5072709;28;20044;-69
2022/11/30 09:30:51;;;;;;;37.20;21.75;;;6.80;99.90;;;;;;5072795;28;20139;-67
2022/11/30 09:33:17;;;;;;;37.75;24.42;;;6.90;99.90;;;;;;5072397;28;20032;-69
2022/11/30 09:35:43;;;;;;;37.25;23.05;;;6.90;99.90;;;;;;5072276;28;20044;-68
2022/11/30 09:38:08;;;;;;;36.47;23.40;;;6.70;99.90;;;;;;5071742;28;20130;-69
2022/11/30 09:40:37;;;;;;;39.92;22.25;;;6.70;99.90;;;;;;5072667;28;20040;-69
2022/11/30 09:43:22;;;;;;;39.03;22.40;;;6.70;99.90;;;;;;5054456;28;20036;-67
2022/11/30 09:45:55;;;;;;;39.25;22.55;;;6.90;99.90;;;;;;5072365;28;20040;-67
2022/11/30 09:48:26;;;;;;;35.10;21.23;;;6.90;99.90;;;;;;5072641;28;20048;-67
2022/11/30 09:50:53;;;;;;;39.47;22.45;;;6.90;99.90;;;;;;5072509;28;20043;-67
2022/11/30 09:53:40;;;;;;;40.13;24.02;;;7.00;99.90;;;;;;5072202;28;20375;-67
2022/11/30 09:56:19;;;;;;;35.67;20.48;;;7.10;99.90;;;;;;5072130;28;20123;-67
2022/11/30 09:58:49;;;;;;;33.90;19.85;;;7.00;99.90;;;;;;5071284;28;20410;-69
2022/11/30 10:01:18;;;;;;;38.67;21.30;;;7.00;99.90;;;;;;5072428;28;20044;-67
2022/11/30 10:03:44;;;;;;;43.13;22.38;;;7.00;99.90;;;;;;5070809;28;20051;-67
2022/11/30 10:06:33;;;;;;;37.30;22.65;;;6.90;99.90;;;;;;5071928;28;20090;-67
2022/11/30 10:09:21;;;;;;;36.10;21.05;;;7.00;99.90;;;;;;5072086;28;20055;-67
2022/11/30 10:11:55;;;;;;;34.97;20.77;;;7.00;99.90;;;;;;5082325;28;20764;-67
2022/11/30 10:14:49;;;;;;;30.27;18.85;;;6.90;99.90;;;;;;5074185;28;20502;-68
2022/11/30 10:17:33;;;;;;;;;;;6.90;99.90;;;;;;5071227;28;20036;-69
2022/11/30 10:20:06;;;;;;;;;;;7.00;99.90;;;;;;5072667;28;19923;-67
2022/11/30 10:23:02;;;;;;;33.25;19.67;;;6.90;99.90;;;;;;5075848;28;19916;-67
2022/11/30 10:25:51;;;;;;;31.13;19.15;;;6.80;99.90;;;;;;5080797;28;20040;-68
2022/11/30 10:28:22;;;;;;;31.77;19.67;;;6.80;99.90;;;;;;5083553;28;20487;-67
2022/11/30 10:30:48;;;;;;;30.63;20.40;;;7.00;99.90;;;;;;5090633;28;20516;-67
2022/11/30 10:33:22;;;;;;;30.80;18.85;;;7.00;99.90;;;;;;5091794;28;20036;-67
2022/11/30 10:35:52;;;;;;;30.92;19.42;;;6.80;99.90;;;;;;5091743;28;20119;-67
2022/11/30 10:38:23;;;;;;;31.08;21.73;;;6.90;99.90;;;;;;5091743;28;20036;-67
2022/11/30 10:41:19;;;;;;;34.67;19.98;;;6.80;99.90;;;;;;5091842;28;20040;-67
2022/11/30 10:43:51;;;;;;;30.92;19.02;;;6.90;99.90;;;;;;5090905;28;20086;-67
2022/11/30 10:46:22;;;;;;;34.03;21.10;;;7.00;99.90;;;;;;5091764;28;20112;-67
2022/11/30 10:48:55;;;;;;;34.83;21.58;;;6.90;99.90;;;;;;5090776;28;20043;-67
2022/11/30 10:51:21;;;;;;;32.03;20.65;;;6.90;99.90;;;;;;5096142;28;20040;-67
2022/11/30 10:53:47;;;;;;;34.78;20.38;;;6.90;99.90;;;;;;5095890;28;20122;-67
2022/11/30 10:56:14;;;;;;;37.72;21.52;;;6.90;99.90;;;;;;5095789;28;20127;-67
2022/11/30 10:59:05;;;;;;;38.00;21.10;;;6.80;99.90;;;;;;5094558;28;20538;-68
2022/11/30 11:01:38;;;;;;;35.40;20.33;;;6.90;99.90;;;;;;5094451;28;20039;-68
2022/11/30 11:04:21;;;;;;;37.78;21.65;;;6.90;99.90;;;;;;5094369;28;20508;-67
2022/11/30 11:06:55;;;;;;;36.00;21.88;;;6.90;99.90;;;;;;5094449;28;20497;-68
2022/11/30 11:09:31;;;;;;;39.22;23.05;;;6.90;99.90;;;;;;5094496;28;20035;-68
2022/11/30 11:12:12;;;;;;;40.78;24.48;;;6.80;99.90;;;;;;5095529;28;20044;-68
2022/11/30 11:14:38;;;;;;;35.90;21.63;;;6.90;99.90;;;;;;5094025;28;20047;-67
2022/11/30 11:17:20;;;;;;;33.65;20.20;;;6.80;99.90;;;;;;5094193;28;20036;-67
2022/11/30 11:19:47;;;;;;;32.63;20.02;;;7.10;99.90;;;;;;5094016;28;20048;-68
2022/11/30 11:22:27;;;;;;;37.80;21.05;;;6.80;99.90;;;;;;5094033;28;20093;-68
2022/11/30 11:25:08;;;;;;;37.00;21.88;;;7.00;99.90;;;;;;5094212;28;20059;-68
2022/11/30 11:27:33;;;;;;;43.42;23.60;;;7.00;99.90;;;;;;5095412;28;20040;-68
2022/11/30 11:30:03;;;;;;;43.55;23.98;;;7.00;99.90;;;;;;5095122;28;20047;-68
2022/11/30 11:32:30;;;;;;;42.90;23.27;;;7.00;99.90;;;;;;5093550;28;20055;-68
2022/11/30 11:34:57;;;;;;;43.45;24.25;;;7.00;99.90;;;;;;5095130;28;20068;-68
2022/11/30 11:37:25;;;;;;;45.55;27.10;;;7.10;99.90;;;;;;5081371;28;20448;-67
2022/11/30 11:40:13;;;;;;;43.08;24.92;;;6.90;99.90;;;;;;5086904;28;20040;-68
2022/11/30 11:42:53;;;;;;;42.83;26.17;;;7.10;99.90;;;;;;5080975;28;20036;-68
2022/11/30 11:45:24;;;;;;;45.58;24.75;;;7.00;99.90;;;;;;5095073;28;20039;-67
2022/11/30 11:48:04;;;;;;;47.80;25.92;;;7.00;99.90;;;;;;5093753;28;20068;-68
2022/11/30 11:50:32;;;;;;;45.80;27.05;;;6.90;99.90;;;;;;5093349;28;20047;-68
2022/11/30 11:53:36;;;;;;;44.45;27.08;;;7.00;99.90;;;;;;5094274;28;20036;-68
2022/11/30 11:56:15;;;;;;;49.40;26.10;;;7.00;99.90;;;;;;5051816;28;20045;-68
2022/11/30 11:58:58;;;;;;;49.90;26.58;;;6.90;99.90;;;;;;5087761;28;20493;-68
2022/11/30 12:02:00;;;;;;;48.73;28.90;;;7.10;99.90;;;;;;5092116;28;20036;-68
2022/11/30 12:04:52;;;;;;;53.17;28.98;;;7.00;99.90;;;;;;5092713;28;20044;-68
2022/11/30 12:07:27;;;;;;;52.22;28.55;;;6.80;99.90;;;;;;5093236;28;20090;-68
2022/11/30 12:10:01;;;;;;;70.95;33.58;;;6.90;99.90;;;;;;5094792;28;20046;-68
2022/11/30 12:12:27;;;;;;;66.20;33.10;;;6.90;99.90;;;;;;5092939;28;20043;-68
2022/11/30 12:14:53;;;;;;;51.35;27.67;;;6.80;99.90;;;;;;5094354;28;20434;-68
2022/11/30 12:17:41;;;;;;;55.88;28.30;;;7.00;99.90;;;;;;5094376;28;20036;-68
2022/11/30 12:20:12;;;;;;;53.88;28.40;;;6.90;99.90;;;;;;5093051;28;20044;-68
2022/11/30 12:22:54;;;;;;;59.97;29.75;;;6.70;99.90;;;;;;5094221;28;20028;-68
2022/11/30 12:26:01;;;;;;;53.88;28.88;;;6.90;99.90;;;;;;5092908;28;20047;-68
2022/11/30 12:28:33;;;;;;;51.47;27.33;;;6.90;99.90;;;;;;5044204;28;20060;-68
2022/11/30 12:31:13;;;;;;;48.60;28.20;;;6.80;99.90;;;;;;5094458;28;20044;-67
2022/11/30 12:34:08;;;;;;;54.08;30.42;;;6.80;99.90;;;;;;5092598;28;20109;-68
2022/11/30 12:36:57;;;;;;;45.88;27.83;;;6.70;99.90;;;;;;5092918;28;20398;-68
2022/11/30 12:39:40;;;;;;;48.53;28.42;;;6.80;99.90;;;;;;5094090;28;20044;-68
2022/11/30 12:42:17;;;;;;;53.30;29.40;;;6.90;99.90;;;;;;5094028;28;20055;-68
2022/11/30 12:44:51;;;;;;;47.08;25.38;;;6.80;99.90;;;;;;5093969;28;20493;-68
2022/11/30 12:47:57;;;;;;;46.42;26.73;;;6.90;99.90;;;;;;5093868;28;20043;-67
2022/11/30 12:50:34;;;;;;;45.95;26.48;;;6.90;99.90;;;;;;5092460;28;20048;-68
2022/11/30 12:53:15;;;;;;;48.22;26.50;;;6.80;99.90;;;;;;5092295;28;20120;-68